Time;durP1;ratioP1;P1;durP2;ratioP2;P2;SDS_P1;SDS_P2;PMS_P1;PMS_P2;Temp;Humidity;BMP_temperature;BMP_pressure;BME280_temperature;BME280_humidity;BME280_pressure;Samples;Min_cycle;Max_cycle;Signal;HPM_P1;HPM_P2
2021/06/18 00:02:24;;;;;;;8.55;4.60;;;24.30;96.00;;;;;;4993812;28;20019;-81
2021/06/18 00:04:50;;;;;;;6.93;5.03;;;24.30;96.10;;;;;;4993829;28;20025;-79
2021/06/18 00:07:16;;;;;;;6.65;4.70;;;24.20;96.10;;;;;;4993417;28;20026;-79
2021/06/18 00:09:42;;;;;;;12.90;4.50;;;24.20;95.90;;;;;;4975883;28;20141;-77
2021/06/18 00:12:08;;;;;;;10.63;4.90;;;24.20;95.90;;;;;;4993422;28;20176;-83
2021/06/18 00:14:34;;;;;;;7.03;5.00;;;24.20;96.00;;;;;;4994147;28;20053;-82
2021/06/18 00:16:59;;;;;;;12.80;4.97;;;24.30;95.90;;;;;;4993594;28;20392;-81
2021/06/18 00:19:25;;;;;;;5.47;4.38;;;24.30;95.90;;;;;;4993324;28;20027;-82
2021/06/18 00:21:51;;;;;;;13.95;4.97;;;24.30;95.90;;;;;;4993909;28;20025;-81
2021/06/18 00:24:17;;;;;;;6.40;4.82;;;24.30;95.80;;;;;;4993164;28;20135;-82
2021/06/18 00:26:43;;;;;;;10.57;5.18;;;24.20;95.90;;;;;;4993252;28;20475;-84
2021/06/18 00:29:08;;;;;;;8.85;4.80;;;24.30;96.20;;;;;;4993312;28;20029;-85
2021/06/18 00:31:34;;;;;;;9.45;4.72;;;24.30;96.20;;;;;;4992222;28;20042;-84
2021/06/18 00:34:00;;;;;;;7.43;4.35;;;24.30;96.30;;;;;;4992854;28;20033;-82
2021/06/18 00:36:26;;;;;;;8.95;4.53;;;24.30;96.50;;;;;;4975790;28;20018;-80
2021/06/18 00:38:52;;;;;;;10.23;4.75;;;24.20;96.70;;;;;;4992989;28;20490;-84
2021/06/18 00:41:18;;;;;;;10.13;5.18;;;24.20;97.10;;;;;;4993472;28;20019;-84
2021/06/18 00:43:43;;;;;;;7.57;5.38;;;24.20;97.00;;;;;;4992808;28;20030;-84
2021/06/18 00:46:10;;;;;;;5.25;4.70;;;24.20;96.80;;;;;;4993236;28;20025;-82
2021/06/18 00:48:37;;;;;;;11.60;5.43;;;24.20;97.90;;;;;;4993110;28;20026;-80
2021/06/18 00:51:03;;;;;;;7.18;5.18;;;24.20;98.00;;;;;;4992848;28;20049;-83
2021/06/18 00:53:29;;;;;;;12.98;5.78;;;24.20;98.20;;;;;;4975202;28;20062;-85
2021/06/18 00:55:55;;;;;;;11.82;4.95;;;24.20;98.40;;;;;;4992187;28;20097;-82
2021/06/18 00:58:21;;;;;;;9.38;5.20;;;24.10;98.40;;;;;;4992791;28;20034;-84
2021/06/18 01:00:48;;;;;;;10.57;4.93;;;24.10;98.30;;;;;;4992772;28;20470;-77
2021/06/18 01:03:15;;;;;;;13.02;5.47;;;24.10;98.10;;;;;;4993129;28;20053;-85
2021/06/18 01:05:44;;;;;;;14.38;5.13;;;24.00;98.30;;;;;;4992952;28;20018;-84
2021/06/18 01:08:47;;;;;;;8.40;5.20;;;24.00;98.80;;;;;;4992324;28;20039;-77
2021/06/18 01:11:36;;;;;;;10.45;5.38;;;23.80;98.70;;;;;;4982416;28;20019;-85
2021/06/18 01:14:18;;;;;;;6.88;5.25;;;23.80;98.60;;;;;;4992455;28;20026;-80
2021/06/18 01:16:51;;;;;;;8.05;5.47;;;23.70;98.60;;;;;;4992145;28;20038;-80
2021/06/18 01:19:33;;;;;;;6.57;5.00;;;23.70;98.60;;;;;;4992530;28;20030;-80
2021/06/18 01:22:00;;;;;;;8.85;5.53;;;23.70;98.60;;;;;;4991241;28;20041;-81
2021/06/18 01:24:36;;;;;;;15.45;5.93;;;23.60;98.70;;;;;;4992549;28;20018;-82
2021/06/18 01:27:19;;;;;;;10.02;5.43;;;23.60;98.70;;;;;;4992828;28;20022;-79
2021/06/18 01:29:53;;;;;;;10.27;5.82;;;23.60;98.80;;;;;;4993045;28;20038;-83
2021/06/18 01:32:24;;;;;;;11.18;5.13;;;23.50;98.80;;;;;;4993030;28;20490;-81
2021/06/18 01:34:53;;;;;;;8.98;5.28;;;23.50;98.70;;;;;;4992871;28;20018;-82
2021/06/18 01:37:24;;;;;;;7.53;5.30;;;23.50;98.50;;;;;;4993462;28;20120;-80
2021/06/18 01:39:50;;;;;;;9.02;5.53;;;23.40;98.40;;;;;;4997282;28;20029;-78
2021/06/18 01:42:17;;;;;;;7.10;5.30;;;23.30;98.50;;;;;;4995822;28;20034;-82
2021/06/18 01:44:43;;;;;;;7.95;5.72;;;23.30;98.60;;;;;;4997165;28;20106;-83
2021/06/18 01:47:11;;;;;;;10.80;5.45;;;23.30;99.00;;;;;;4997326;28;20526;-77
2021/06/18 01:49:39;;;;;;;6.93;5.40;;;23.20;98.70;;;;;;4996411;28;20514;-82
2021/06/18 01:52:07;;;;;;;9.55;5.70;;;23.20;98.60;;;;;;5006095;28;20081;-76
2021/06/18 01:54:35;;;;;;;9.30;5.43;;;23.10;98.50;;;;;;4999344;28;20030;-82
2021/06/18 01:57:03;;;;;;;7.20;5.32;;;23.20;98.20;;;;;;4996004;28;20479;-80
2021/06/18 01:59:34;;;;;;;14.20;6.07;;;23.10;98.40;;;;;;4995904;28;20064;-79
2021/06/18 02:02:02;;;;;;;9.82;5.28;;;23.10;98.50;;;;;;4994943;28;20057;-80
2021/06/18 02:04:29;;;;;;;8.00;5.30;;;23.10;98.40;;;;;;4996638;28;20041;-83
2021/06/18 02:06:55;;;;;;;8.80;5.80;;;23.00;98.10;;;;;;4996286;28;20029;-81
2021/06/18 02:09:23;;;;;;;12.98;5.85;;;22.90;98.10;;;;;;4996525;28;20023;-78
2021/06/18 02:11:49;;;;;;;8.73;5.78;;;22.90;98.40;;;;;;4996177;28;20018;-76
2021/06/18 02:14:19;;;;;;;13.40;5.65;;;22.80;98.50;;;;;;4995983;28;20404;-76
2021/06/18 02:17:00;;;;;;;11.25;5.97;;;22.80;98.70;;;;;;4995782;28;20069;-80
2021/06/18 02:19:26;;;;;;;8.90;5.93;;;22.70;98.90;;;;;;4996139;28;20030;-79
2021/06/18 02:21:54;;;;;;;8.75;5.55;;;22.70;99.00;;;;;;4995026;28;20114;-79
2021/06/18 02:24:24;;;;;;;9.30;5.70;;;22.60;99.00;;;;;;4996407;28;20141;-83
2021/06/18 02:26:50;;;;;;;9.57;5.60;;;22.60;99.20;;;;;;4996234;28;20018;-81
2021/06/18 02:29:16;;;;;;;8.75;6.28;;;22.60;99.20;;;;;;4996128;28;20153;-77
2021/06/18 02:31:43;;;;;;;7.68;6.03;;;22.60;99.30;;;;;;4996850;28;20022;-80
2021/06/18 02:34:10;;;;;;;7.95;5.75;;;22.60;99.40;;;;;;4994453;28;20072;-81
2021/06/18 02:36:38;;;;;;;8.75;5.47;;;22.60;99.40;;;;;;4996286;28;20018;-81
2021/06/18 02:39:06;;;;;;;7.93;5.70;;;22.60;99.00;;;;;;4996081;28;20475;-76
2021/06/18 02:41:32;;;;;;;12.60;6.45;;;22.60;98.80;;;;;;4995528;28;20525;-83
2021/06/18 02:43:58;;;;;;;7.78;5.72;;;22.60;98.80;;;;;;4995983;28;20028;-83
2021/06/18 02:46:38;;;;;;;8.75;5.22;;;22.60;99.00;;;;;;4996037;28;20106;-78
2021/06/18 02:49:09;;;;;;;10.77;6.47;;;22.60;99.00;;;;;;4995532;28;20011;-83
2021/06/18 02:51:56;;;;;;;9.55;5.65;;;22.60;99.20;;;;;;5005815;28;20471;-83
2021/06/18 02:54:37;;;;;;;16.10;6.25;;;22.60;98.90;;;;;;5003367;28;20029;-82
2021/06/18 02:57:18;;;;;;;11.05;5.85;;;22.60;99.00;;;;;;5003202;28;20097;-81
2021/06/18 03:00:06;;;;;;;14.95;6.70;;;22.40;99.30;;;;;;4997302;28;20026;-82
2021/06/18 03:02:39;;;;;;;11.80;5.88;;;22.40;99.50;;;;;;4993842;28;20030;-81
2021/06/18 03:05:08;;;;;;;13.30;5.70;;;22.40;99.60;;;;;;4997692;28;20015;-81
2021/06/18 03:07:36;;;;;;;9.75;5.75;;;22.40;99.50;;;;;;5001394;28;20022;-77
2021/06/18 03:10:06;;;;;;;7.40;6.20;;;22.40;99.60;;;;;;4991574;28;20029;-83
2021/06/18 03:12:35;;;;;;;10.88;6.22;;;22.40;99.50;;;;;;5001196;28;20030;-83
2021/06/18 03:15:06;;;;;;;8.13;5.60;;;22.40;99.50;;;;;;4999325;28;20085;-82
2021/06/18 03:17:35;;;;;;;9.80;5.22;;;22.30;99.60;;;;;;4996595;28;20054;-83
2021/06/18 03:20:12;;;;;;;11.02;5.03;;;22.30;99.60;;;;;;5006691;28;20034;-80
2021/06/18 03:22:38;;;;;;;7.45;5.85;;;22.40;99.30;;;;;;4996545;28;20018;-84
2021/06/18 03:25:07;;;;;;;14.95;5.60;;;22.40;99.10;;;;;;5009201;28;20378;-81
2021/06/18 03:27:34;;;;;;;12.48;5.53;;;22.40;99.00;;;;;;4996550;28;20018;-83
2021/06/18 03:30:01;;;;;;;9.32;6.20;;;22.50;99.00;;;;;;5000364;28;20022;-78
2021/06/18 03:32:28;;;;;;;8.80;5.13;;;22.50;99.00;;;;;;4993355;28;20407;-77
2021/06/18 03:34:55;;;;;;;12.68;5.60;;;22.50;99.00;;;;;;4992982;28;20141;-76
2021/06/18 03:37:21;;;;;;;14.43;5.88;;;22.50;99.20;;;;;;4991408;28;20691;-77
2021/06/18 03:39:48;;;;;;;10.40;5.65;;;22.50;99.10;;;;;;4993392;28;20022;-82
2021/06/18 03:42:14;;;;;;;7.72;5.60;;;22.50;99.10;;;;;;4993189;28;20391;-82
2021/06/18 03:44:41;;;;;;;10.65;5.32;;;22.50;99.10;;;;;;4993650;28;20018;-77
2021/06/18 03:47:08;;;;;;;12.68;5.80;;;22.60;99.20;;;;;;4994362;28;20014;-75
2021/06/18 03:49:36;;;;;;;6.57;5.40;;;22.60;99.00;;;;;;4993275;28;20142;-81
2021/06/18 03:52:02;;;;;;;8.40;5.60;;;22.70;99.10;;;;;;4992880;28;20567;-82
2021/06/18 03:54:32;;;;;;;9.27;5.45;;;22.70;99.10;;;;;;4992574;28;20022;-80
2021/06/18 03:56:59;;;;;;;19.10;5.82;;;22.80;99.10;;;;;;4993248;28;20022;-76
2021/06/18 03:59:26;;;;;;;10.38;5.75;;;22.90;99.10;;;;;;4992672;28;20084;-82
2021/06/18 04:01:53;;;;;;;7.78;5.55;;;22.90;98.90;;;;;;4992456;28;20030;-83
2021/06/18 04:04:22;;;;;;;13.32;6.20;;;23.10;99.00;;;;;;4993914;28;20022;-83
2021/06/18 04:06:48;;;;;;;7.13;4.97;;;23.20;98.70;;;;;;4977202;28;20475;-81
2021/06/18 04:09:16;;;;;;;13.43;5.20;;;23.40;98.80;;;;;;4993499;28;20069;-77
2021/06/18 04:11:44;;;;;;;6.15;4.90;;;23.50;98.80;;;;;;4992128;28;20014;-81
2021/06/18 04:14:11;;;;;;;15.45;5.57;;;23.70;98.70;;;;;;4992395;28;20488;-76
2021/06/18 04:16:40;;;;;;;8.30;5.38;;;23.90;98.50;;;;;;4992092;28;20065;-77
2021/06/18 04:19:07;;;;;;;12.50;5.68;;;24.10;98.40;;;;;;4992863;28;20026;-83
2021/06/18 04:21:35;;;;;;;7.30;5.22;;;24.30;98.00;;;;;;4992978;28;20025;-75
2021/06/18 04:24:01;;;;;;;9.05;5.65;;;24.40;97.80;;;;;;4993123;28;20033;-82
2021/06/18 04:26:27;;;;;;;8.60;6.15;;;24.60;97.90;;;;;;4994149;28;20023;-83
2021/06/18 04:28:53;;;;;;;15.90;6.40;;;24.90;97.80;;;;;;4994043;28;20023;-81
2021/06/18 04:31:19;;;;;;;11.57;5.13;;;25.20;97.10;;;;;;4993583;28;20026;-84
2021/06/18 04:33:45;;;;;;;10.65;5.40;;;25.60;96.40;;;;;;4993808;28;20025;-82
2021/06/18 04:36:10;;;;;;;9.95;4.68;;;26.10;96.10;;;;;;4993528;28;20379;-82
2021/06/18 04:38:38;;;;;;;8.20;4.80;;;27.10;95.10;;;;;;4993954;28;20558;-82
2021/06/18 04:41:04;;;;;;;8.65;5.70;;;28.80;93.70;;;;;;4993615;28;20023;-81
2021/06/18 04:43:29;;;;;;;7.75;5.00;;;30.60;92.30;;;;;;4993473;28;20490;-80
2021/06/18 04:45:55;;;;;;;12.68;4.90;;;31.90;90.90;;;;;;4993709;28;20526;-82
2021/06/18 04:48:21;;;;;;;9.98;5.00;;;33.00;90.10;;;;;;4993603;28;20497;-81
2021/06/18 04:50:47;;;;;;;7.13;4.38;;;33.90;88.10;;;;;;4991530;28;20129;-82
2021/06/18 04:53:14;;;;;;;14.40;5.07;;;34.60;85.00;;;;;;4992066;28;20022;-77
2021/06/18 04:55:41;;;;;;;6.82;4.22;;;35.30;83.70;;;;;;4993696;28;20018;-83
2021/06/18 04:58:12;;;;;;;14.82;5.40;;;36.10;81.80;;;;;;4992311;28;20391;-76
2021/06/18 05:00:38;;;;;;;8.00;4.70;;;36.30;80.30;;;;;;4993659;28;20119;-82
2021/06/18 05:03:03;;;;;;;13.13;4.28;;;35.80;80.40;;;;;;4992918;28;20097;-80
2021/06/18 05:05:29;;;;;;;15.45;4.53;;;35.00;81.30;;;;;;4993270;28;20027;-77
2021/06/18 05:07:56;;;;;;;10.38;4.05;;;33.80;82.50;;;;;;4993352;28;20112;-81
2021/06/18 05:10:23;;;;;;;16.50;4.80;;;33.90;83.90;;;;;;4993424;28;20538;-78
2021/06/18 05:12:50;;;;;;;20.90;4.93;;;34.80;82.30;;;;;;4992715;28;20030;-80
2021/06/18 05:15:16;;;;;;;20.25;5.50;;;35.10;82.10;;;;;;4992968;28;20027;-79
2021/06/18 05:17:42;;;;;;;10.10;5.32;;;34.70;81.90;;;;;;4992845;28;20066;-77
2021/06/18 05:20:08;;;;;;;15.93;5.45;;;34.40;82.90;;;;;;4992442;28;20065;-78
2021/06/18 05:22:34;;;;;;;9.68;4.30;;;34.90;82.10;;;;;;4992850;28;20046;-76
2021/06/18 05:25:00;;;;;;;7.68;3.72;;;35.90;80.60;;;;;;4992634;28;20022;-78
2021/06/18 05:27:26;;;;;;;8.63;4.13;;;36.60;78.20;;;;;;4992604;28;20102;-81
2021/06/18 05:29:52;;;;;;;9.18;3.60;;;37.10;77.30;;;;;;4991243;28;20411;-79
2021/06/18 05:32:18;;;;;;;10.10;4.00;;;37.90;76.10;;;;;;4992373;28;20018;-80
2021/06/18 05:34:45;;;;;;;7.50;3.85;;;38.40;74.70;;;;;;4992219;28;20034;-81
2021/06/18 05:37:11;;;;;;;8.70;3.40;;;38.50;74.40;;;;;;4996485;28;20030;-76
2021/06/18 05:39:37;;;;;;;12.13;3.60;;;38.70;73.60;;;;;;5001899;28;20040;-79
2021/06/18 05:42:03;;;;;;;7.60;3.38;;;39.30;73.40;;;;;;4998428;28;20379;-77
2021/06/18 05:44:28;;;;;;;11.57;4.07;;;40.00;72.20;;;;;;4993891;28;20026;-82
2021/06/18 05:46:54;;;;;;;5.88;3.13;;;40.70;71.00;;;;;;4975630;28;20423;-77
2021/06/18 05:49:21;;;;;;;6.90;3.28;;;40.50;70.00;;;;;;4975087;28;20603;-80
2021/06/18 05:51:47;;;;;;;8.40;3.38;;;40.30;69.40;;;;;;4978764;28;20487;-78
2021/06/18 05:54:14;;;;;;;5.68;3.42;;;40.60;69.80;;;;;;4992247;28;20037;-78
2021/06/18 05:56:40;;;;;;;14.50;3.72;;;41.10;68.80;;;;;;5000431;28;20052;-81
2021/06/18 05:59:06;;;;;;;5.20;3.15;;;41.00;68.60;;;;;;4995098;28;20062;-80
2021/06/18 06:01:32;;;;;;;11.73;3.40;;;40.80;68.60;;;;;;4998990;28;20164;-81
2021/06/18 06:04:00;;;;;;;10.27;3.58;;;41.40;67.80;;;;;;4997700;28;20501;-82
2021/06/18 06:06:27;;;;;;;7.57;3.20;;;41.70;67.00;;;;;;4994064;28;20080;-79
2021/06/18 06:08:54;;;;;;;15.63;3.53;;;42.00;66.50;;;;;;4997651;28;20023;-79
2021/06/18 06:11:24;;;;;;;19.73;3.35;;;43.00;65.80;;;;;;4995036;28;20034;-79
2021/06/18 06:13:57;;;;;;;9.48;3.30;;;43.40;65.10;;;;;;5000787;28;20030;-81
2021/06/18 06:16:23;;;;;;;13.15;4.13;;;44.10;64.60;;;;;;5000260;28;20030;-81
2021/06/18 06:18:49;;;;;;;11.93;3.53;;;44.70;63.50;;;;;;4995168;28;20042;-81
2021/06/18 06:21:15;;;;;;;6.93;3.75;;;44.40;62.50;;;;;;4999152;28;20459;-79
2021/06/18 06:23:40;;;;;;;22.05;3.13;;;44.60;63.00;;;;;;4998151;28;20022;-76
2021/06/18 06:26:06;;;;;;;8.73;3.53;;;44.60;62.70;;;;;;5008845;28;20022;-82
2021/06/18 06:28:34;;;;;;;10.18;2.97;;;44.80;62.70;;;;;;5001034;28;20478;-79
2021/06/18 06:31:00;;;;;;;10.75;2.78;;;44.80;62.40;;;;;;4996131;28;20014;-82
2021/06/18 06:33:26;;;;;;;9.65;3.00;;;45.00;62.40;;;;;;5005055;28;20023;-77
2021/06/18 06:35:52;;;;;;;8.20;3.78;;;45.50;61.90;;;;;;5005023;28;20034;-80
2021/06/18 06:38:20;;;;;;;8.10;2.95;;;45.60;61.30;;;;;;4999305;28;20080;-81
2021/06/18 06:40:50;;;;;;;9.73;3.25;;;45.00;61.30;;;;;;4979911;28;20491;-81
2021/06/18 06:43:16;;;;;;;10.93;3.80;;;44.40;62.00;;;;;;4988727;28;20038;-80
2021/06/18 06:45:42;;;;;;;7.85;3.25;;;43.60;62.90;;;;;;4980003;28;20026;-79
2021/06/18 06:48:09;;;;;;;8.18;3.65;;;42.60;63.60;;;;;;4983999;28;20379;-76
2021/06/18 06:50:35;;;;;;;9.45;2.78;;;41.30;65.30;;;;;;4991220;28;20042;-76
2021/06/18 06:53:01;;;;;;;16.63;3.92;;;39.90;67.20;;;;;;4977675;28;20034;-83
2021/06/18 06:55:26;;;;;;;9.52;4.13;;;38.70;69.20;;;;;;4976446;28;20479;-77
2021/06/18 06:57:52;;;;;;;14.68;4.75;;;37.70;71.30;;;;;;4984893;28;20041;-86
2021/06/18 07:00:19;;;;;;;9.02;5.13;;;37.20;72.60;;;;;;4979976;28;20027;-79
2021/06/18 07:02:45;;;;;;;12.20;4.28;;;36.80;73.60;;;;;;4995302;28;20030;-87
2021/06/18 07:05:12;;;;;;;9.77;4.65;;;36.50;74.40;;;;;;4991543;28;20038;-81
2021/06/18 07:07:37;;;;;;;18.13;4.45;;;36.30;74.90;;;;;;4984184;28;20027;-76
2021/06/18 07:10:04;;;;;;;11.57;4.65;;;36.10;75.50;;;;;;4982164;28;20525;-77
2021/06/18 07:12:30;;;;;;;9.00;4.10;;;36.00;75.90;;;;;;4994736;28;20038;-87
2021/06/18 07:14:56;;;;;;;9.88;3.90;;;35.90;76.00;;;;;;4994851;28;20063;-77
2021/06/18 07:17:22;;;;;;;14.27;4.63;;;35.70;77.40;;;;;;5002057;28;20033;-85
2021/06/18 07:19:49;;;;;;;11.18;4.22;;;35.40;77.70;;;;;;4984349;28;20412;-80
2021/06/18 07:22:18;;;;;;;16.65;4.45;;;35.30;78.00;;;;;;4980618;28;20061;-80
2021/06/18 07:24:44;;;;;;;12.80;4.60;;;35.40;77.20;;;;;;4991802;28;20479;-86
2021/06/18 07:27:10;;;;;;;9.10;4.35;;;35.60;76.50;;;;;;4992022;28;20031;-85
2021/06/18 07:29:36;;;;;;;10.60;4.57;;;35.60;76.50;;;;;;4994896;28;20019;-80
2021/06/18 07:32:02;;;;;;;22.55;5.07;;;35.60;77.20;;;;;;4995597;28;20483;-85
2021/06/18 07:34:27;;;;;;;15.57;5.55;;;35.80;77.50;;;;;;5005098;28;20072;-80
2021/06/18 07:36:53;;;;;;;13.43;4.20;;;35.90;77.20;;;;;;4996951;28;20423;-78
2021/06/18 07:39:19;;;;;;;11.55;4.22;;;35.70;77.10;;;;;;4980792;28;20045;-84
2021/06/18 07:41:45;;;;;;;10.60;4.45;;;35.60;77.50;;;;;;4996603;28;20035;-81
2021/06/18 07:44:11;;;;;;;16.13;4.47;;;35.60;77.80;;;;;;4998384;28;20536;-80
2021/06/18 07:46:37;;;;;;;12.05;4.63;;;35.60;77.20;;;;;;5013216;28;20026;-79
2021/06/18 07:49:03;;;;;;;18.85;4.65;;;35.60;77.40;;;;;;4997871;28;20043;-82
2021/06/18 07:51:28;;;;;;;12.63;5.13;;;35.60;77.40;;;;;;4992045;28;20030;-79
2021/06/18 07:53:54;;;;;;;12.50;4.60;;;35.70;77.40;;;;;;4990248;28;20076;-85
2021/06/18 07:56:29;;;;;;;13.68;5.35;;;35.70;77.70;;;;;;4991350;28;20026;-84
2021/06/18 07:58:55;;;;;;;9.85;4.15;;;35.80;76.80;;;;;;4993658;28;20169;-85
2021/06/18 08:01:21;;;;;;;12.20;4.22;;;35.80;75.40;;;;;;4995308;28;20029;-84
2021/06/18 08:03:47;;;;;;;10.23;4.07;;;35.70;75.30;;;;;;4992760;28;20049;-77
2021/06/18 08:06:13;;;;;;;8.38;4.50;;;35.60;73.50;;;;;;4986821;28;20537;-80
2021/06/18 08:08:38;;;;;;;11.13;4.07;;;35.20;74.30;;;;;;4992077;28;20042;-81
2021/06/18 08:11:04;;;;;;;9.85;4.63;;;34.80;76.70;;;;;;4989038;28;20101;-86
2021/06/18 08:13:30;;;;;;;12.50;4.57;;;34.40;76.20;;;;;;4974084;28;20395;-91
2021/06/18 08:15:56;;;;;;;14.05;4.22;;;34.20;77.50;;;;;;4990803;28;20029;-81
2021/06/18 08:18:22;;;;;;;10.05;4.88;;;34.30;77.20;;;;;;4990074;28;20030;-86
2021/06/18 08:20:48;;;;;;;10.15;4.50;;;34.50;76.30;;;;;;4991636;28;20097;-80
2021/06/18 08:23:14;;;;;;;17.75;5.03;;;34.70;77.90;;;;;;4991960;28;20038;-83
2021/06/18 08:25:41;;;;;;;11.18;4.88;;;34.90;78.90;;;;;;4992854;28;20050;-79
2021/06/18 08:28:06;;;;;;;15.05;4.45;;;34.80;79.20;;;;;;4982437;28;20117;-81
2021/06/18 08:30:32;;;;;;;8.00;4.22;;;34.80;79.40;;;;;;4983604;28;20125;-84
2021/06/18 08:33:01;;;;;;;10.85;4.20;;;34.80;79.50;;;;;;4991549;28;20045;-84
2021/06/18 08:35:30;;;;;;;6.63;4.50;;;34.60;80.60;;;;;;4984263;28;20077;-83
2021/06/18 08:37:56;;;;;;;14.25;4.95;;;34.60;80.90;;;;;;4984256;28;20488;-83
2021/06/18 08:40:22;;;;;;;14.15;5.13;;;34.40;81.50;;;;;;4977859;28;20019;-79
2021/06/18 08:42:49;;;;;;;24.33;5.45;;;34.00;81.40;;;;;;4978450;28;20062;-78
2021/06/18 08:45:15;;;;;;;11.48;5.65;;;33.70;83.00;;;;;;4982427;28;20046;-80
2021/06/18 08:47:41;;;;;;;8.25;5.20;;;33.70;84.20;;;;;;4977188;28;20551;-80
2021/06/18 08:50:07;;;;;;;18.08;5.72;;;33.70;84.60;;;;;;4979672;28;20395;-79
2021/06/18 08:52:38;;;;;;;8.93;4.72;;;33.70;84.30;;;;;;4983116;28;20041;-78
2021/06/18 08:55:05;;;;;;;10.50;5.38;;;33.80;84.30;;;;;;4981221;28;20034;-81
2021/06/18 08:57:31;;;;;;;10.45;4.80;;;33.70;84.70;;;;;;4974848;28;20110;-81
2021/06/18 08:59:57;;;;;;;17.60;4.95;;;33.60;86.40;;;;;;4979626;28;20110;-82
2021/06/18 09:02:24;;;;;;;30.48;5.38;;;33.60;87.10;;;;;;4986683;28;20126;-81
2021/06/18 09:05:13;;;;;;;7.30;4.65;;;33.40;87.50;;;;;;4994621;28;20022;-81
2021/06/18 09:08:02;;;;;;;14.68;4.90;;;33.30;88.10;;;;;;4990222;28;20029;-81
2021/06/18 09:10:33;;;;;;;14.45;5.53;;;33.40;88.20;;;;;;4990640;28;20061;-80
2021/06/18 09:13:11;;;;;;;9.00;5.05;;;33.30;88.30;;;;;;4991334;28;20105;-81
2021/06/18 09:15:43;;;;;;;7.22;5.10;;;33.10;89.20;;;;;;4991834;28;20026;-81
2021/06/18 09:18:30;;;;;;;12.25;5.60;;;33.30;89.70;;;;;;4992515;28;20026;-82
2021/06/18 09:21:13;;;;;;;11.82;4.80;;;33.30;89.70;;;;;;4992150;28;20022;-81
2021/06/18 09:23:41;;;;;;;18.05;4.85;;;33.40;89.60;;;;;;4975721;28;20033;-81
2021/06/18 09:26:32;;;;;;;7.75;4.97;;;33.50;89.50;;;;;;4974719;28;20073;-78
2021/06/18 09:29:16;;;;;;;5.97;4.50;;;33.50;89.60;;;;;;4995916;28;20075;-80
2021/06/18 09:31:49;;;;;;;7.22;4.50;;;33.50;89.80;;;;;;4994953;28;20061;-81
2021/06/18 09:34:28;;;;;;;10.05;4.60;;;33.40;90.00;;;;;;4972903;28;20411;-81
2021/06/18 09:37:12;;;;;;;9.77;5.18;;;33.30;89.50;;;;;;4990802;28;20033;-80
2021/06/18 09:40:07;;;;;;;11.95;4.47;;;33.20;90.10;;;;;;4980371;28;20030;-80
2021/06/18 09:42:35;;;;;;;12.15;4.80;;;33.10;89.60;;;;;;4978196;28;20015;-80
2021/06/18 09:45:07;;;;;;;9.15;4.97;;;32.90;90.10;;;;;;4973422;28;20031;-80
2021/06/18 09:47:35;;;;;;;9.18;5.80;;;32.80;90.60;;;;;;4977389;28;20022;-81
2021/06/18 09:50:01;;;;;;;9.32;5.78;;;32.80;90.70;;;;;;4978375;28;20035;-81
2021/06/18 09:52:27;;;;;;;14.10;5.28;;;32.70;90.60;;;;;;4973801;28;20114;-81
2021/06/18 09:54:53;;;;;;;9.77;4.57;;;32.80;90.80;;;;;;4976003;28;20106;-81
2021/06/18 09:57:20;;;;;;;8.32;4.95;;;32.80;91.30;;;;;;4974991;28;20487;-80
2021/06/18 10:00:01;;;;;;;9.60;4.47;;;32.70;91.00;;;;;;4977996;28;20033;-83
2021/06/18 10:02:50;;;;;;;8.02;4.25;;;32.60;90.70;;;;;;4980429;28;20479;-81
2021/06/18 10:05:24;;;;;;;11.07;4.75;;;32.90;90.50;;;;;;4987004;28;20077;-81
2021/06/18 10:07:53;;;;;;;8.38;4.35;;;33.00;90.00;;;;;;4989395;28;20018;-81
2021/06/18 10:10:30;;;;;;;5.63;4.30;;;33.10;90.10;;;;;;4994653;28;20017;-79
2021/06/18 10:12:56;;;;;;;10.10;5.00;;;33.00;90.40;;;;;;4995424;28;20471;-80
2021/06/18 10:15:28;;;;;;;8.30;4.63;;;32.60;90.90;;;;;;4994563;28;20064;-80
2021/06/18 10:17:55;;;;;;;8.48;4.40;;;32.30;91.30;;;;;;4995673;28;20113;-81
2021/06/18 10:20:24;;;;;;;6.88;4.40;;;32.20;91.20;;;;;;4995240;28;20034;-80
2021/06/18 10:23:10;;;;;;;5.38;4.35;;;32.30;90.70;;;;;;4981438;28;20407;-80
2021/06/18 10:25:48;;;;;;;17.95;4.60;;;32.50;90.80;;;;;;4984309;28;20033;-81
2021/06/18 10:28:24;;;;;;;10.95;3.67;;;32.70;89.90;;;;;;4995528;28;20411;-80
2021/06/18 10:30:52;;;;;;;4.75;3.38;;;32.60;88.10;;;;;;4997978;28;20046;-77
2021/06/18 10:33:27;;;;;;;8.63;3.67;;;32.40;87.90;;;;;;4987053;28;20371;-78
2021/06/18 10:36:16;;;;;;;8.00;4.20;;;32.20;89.10;;;;;;5005566;28;20086;-76
2021/06/18 10:38:44;;;;;;;7.78;3.95;;;32.10;90.20;;;;;;4993881;28;20467;-76
2021/06/18 10:41:12;;;;;;;14.40;3.78;;;32.10;90.20;;;;;;4997605;28;20014;-76
2021/06/18 10:43:42;;;;;;;5.30;3.10;;;32.40;89.60;;;;;;5000483;28;20029;-76
2021/06/18 10:46:30;;;;;;;5.55;3.38;;;32.50;88.80;;;;;;5012691;28;20110;-76
2021/06/18 10:49:04;;;;;;;4.55;2.83;;;32.50;88.60;;;;;;5012226;28;20026;-75
2021/06/18 10:51:38;;;;;;;9.90;3.80;;;32.60;87.20;;;;;;5010406;28;20105;-76
2021/06/18 10:54:12;;;;;;;8.50;3.60;;;32.50;87.90;;;;;;5000594;28;20026;-76
2021/06/18 10:56:44;;;;;;;6.78;4.10;;;32.30;89.40;;;;;;5000538;28;20096;-75
2021/06/18 10:59:15;;;;;;;4.25;2.90;;;32.10;88.10;;;;;;5000351;28;20384;-76
2021/06/18 11:01:41;;;;;;;5.78;2.90;;;32.00;86.70;;;;;;5002060;28;20029;-75
2021/06/18 11:04:07;;;;;;;5.82;3.15;;;31.90;87.10;;;;;;5000934;28;20027;-76
2021/06/18 11:06:45;;;;;;;4.63;2.88;;;32.00;87.30;;;;;;4998220;28;20482;-77
2021/06/18 11:09:12;;;;;;;10.32;2.88;;;31.80;87.00;;;;;;4999169;28;20487;-75
2021/06/18 11:11:38;;;;;;;4.40;2.45;;;31.80;86.70;;;;;;5008746;28;20022;-75
2021/06/18 11:14:05;;;;;;;8.55;2.63;;;31.80;85.80;;;;;;4985055;28;20109;-75
2021/06/18 11:16:39;;;;;;;8.95;2.55;;;31.80;86.20;;;;;;5002879;28;20030;-75
2021/06/18 11:19:27;;;;;;;6.38;2.15;;;31.60;86.20;;;;;;4974115;28;20034;-75
2021/06/18 11:21:54;;;;;;;6.10;2.60;;;31.50;85.80;;;;;;4994171;28;20031;-76
2021/06/18 11:24:42;;;;;;;4.53;1.90;;;31.30;85.70;;;;;;4993650;28;20161;-75
2021/06/18 11:27:30;;;;;;;3.92;1.90;;;31.30;85.40;;;;;;4984291;28;20019;-75
2021/06/18 11:30:30;;;;;;;5.75;1.90;;;31.30;85.30;;;;;;4983181;28;20019;-75
2021/06/18 11:32:57;;;;;;;3.47;1.73;;;31.10;85.30;;;;;;4983321;28;20022;-75
2021/06/18 11:35:32;;;;;;;3.55;2.00;;;31.00;87.20;;;;;;4985509;28;20126;-74
2021/06/18 11:38:10;;;;;;;2.80;1.70;;;30.90;88.10;;;;;;4982072;28;20023;-76
2021/06/18 11:40:36;;;;;;;1.75;1.30;;;31.00;88.40;;;;;;4980440;28;20085;-74
2021/06/18 11:43:02;;;;;;;2.60;1.80;;;31.00;85.50;;;;;;4991046;28;20019;-74
2021/06/18 11:45:42;;;;;;;5.40;1.88;;;31.00;87.00;;;;;;4990392;28;20138;-74
2021/06/18 12:02:22;;;;;;;3.13;1.50;;;31.50;86.90;;;;;;4870956;29;20168;-83
2021/06/18 12:19:36;;;;;;;4.28;1.80;;;31.20;91.00;;;;;;4830673;29;20403;-90
2021/06/18 12:30:21;;;;;;;3.60;1.70;;;31.80;89.50;;;;;;4806410;29;20128;-86
2021/06/18 12:40:23;;;;;;;4.80;1.98;;;31.60;91.10;;;;;;4779295;30;20250;-91
2021/06/18 12:47:10;;;;;;;3.10;1.75;;;31.70;90.80;;;;;;4783416;30;20039;-91
2021/06/18 13:04:52;;;;;;;3.70;1.67;;;31.70;91.10;;;;;;4818974;29;20557;-86
2021/06/18 13:11:49;;;;;;;1.65;1.15;;;31.50;89.70;;;;;;4927218;29;20070;-84
2021/06/18 13:18:37;;;;;;;2.40;1.60;;;31.40;90.10;;;;;;4869830;29;20065;-85
2021/06/18 13:36:26;;;;;;;7.55;1.73;;;31.50;88.40;;;;;;4829203;29;20047;-86
2021/06/18 13:40:42;;;;;;;7.82;2.15;;;31.60;90.20;;;;;;4826777;29;20054;-89
2021/06/18 13:57:22;;;;;;;;;;;;;;;;;;;;;
2021/06/18 14:10:46;;;;;;;4.47;2.20;;;31.40;88.80;;;;;;4801848;29;20516;-82
2021/06/18 14:13:57;;;;;;;2.67;1.65;;;31.30;88.10;;;;;;4765729;30;20054;-85
2021/06/18 14:23:19;;;;;;;7.90;1.55;;;30.70;91.10;;;;;;4730608;29;20073;-89
2021/06/18 14:26:20;;;;;;;;;;;;;;;;;;;;;
2021/06/18 14:39:32;;;;;;;6.32;1.83;;;30.30;91.80;;;;;;4778815;30;20094;-91
2021/06/18 14:42:38;;;;;;;8.30;1.88;;;30.20;92.00;;;;;;4774368;29;20047;-85
2021/06/18 14:49:55;;;;;;;3.47;1.80;;;30.10;91.90;;;;;;4795220;29;20050;-88
2021/06/18 15:04:04;;;;;;;;;;;;;;;;;;;;;
2021/06/18 15:42:11;;;;;;;;;;;;;;;;;;;;;
2021/06/18 15:48:46;;;;;;;3.33;2.50;;;29.00;93.80;;;;;;4764119;30;20543;-80
2021/06/18 15:52:05;;;;;;;;;;;;;;;;;;;;;
2021/06/18 15:59:22;;;;;;;4.47;2.13;;;29.20;94.00;;;;;;4873203;29;20132;-82
2021/06/18 16:39:45;;;;;;;5.32;2.63;;;28.20;96.50;;;;;;4874338;29;20517;-86
2021/06/18 16:42:49;;;;;;;4.45;2.53;;;28.30;96.60;;;;;;4877189;29;20143;-84
2021/06/18 16:49:34;;;;;;;;;;;;;;;;;;;;;
2021/06/18 16:53:43;;;;;;;;;;;;;;;;;;;;;
2021/06/18 17:33:39;;;;;;;;;;;;;;;;;;;;;
2021/06/18 17:36:44;;;;;;;6.25;2.63;;;28.00;96.20;;;;;;4835192;29;20034;-83
2021/06/18 17:53:56;;;;;;;6.20;3.10;;;27.60;98.20;;;;;;4702416;30;20096;-81
2021/06/18 18:00:52;;;;;;;8.45;2.60;;;27.40;98.40;;;;;;4799996;29;20099;-83
2021/06/18 18:07:17;;;;;;;6.07;3.03;;;27.20;99.20;;;;;;4813988;29;20079;-81